Time;durP1;ratioP1;P1;durP2;ratioP2;P2;SDS_P1;SDS_P2;PMS_P1;PMS_P2;Temp;Humidity;BMP_temperature;BMP_pressure;BME280_temperature;BME280_humidity;BME280_pressure;Samples;Min_cycle;Max_cycle;Signal;HPM_P1;HPM_P2
2023/09/28 00:01:00;;;;;;;;;11.50;11.25;;;;;23.27;48.11;101058.34;5000108;28;45287;-64
2023/09/28 00:03:27;;;;;;;;;12.00;11.00;;;;;23.26;48.48;101067.34;5005377;28;45368;-64
2023/09/28 00:05:53;;;;;;;;;13.25;9.50;;;;;23.22;48.47;101063.16;5000773;28;45536;-64
2023/09/28 00:08:18;;;;;;;;;11.00;8.25;;;;;23.19;48.37;101055.28;5000234;28;45262;-64
2023/09/28 00:10:43;;;;;;;;;10.00;10.00;;;;;23.18;48.70;101064.28;4999864;28;45275;-64
2023/09/28 00:13:09;;;;;;;;;10.50;9.50;;;;;23.15;48.72;101064.44;5000293;28;45318;-64
2023/09/28 00:15:34;;;;;;;;;11.00;9.25;;;;;23.10;48.89;101062.03;4999598;28;49299;-64
2023/09/28 00:18:00;;;;;;;;;12.00;11.25;;;;;23.09;48.60;101065.66;5000333;28;45217;-64
2023/09/28 00:20:27;;;;;;;;;9.75;9.75;;;;;23.02;49.01;101062.53;5000047;28;45303;-64
2023/09/28 00:22:54;;;;;;;;;12.25;11.75;;;;;23.04;48.87;101070.47;5000353;28;45379;-63
2023/09/28 00:25:22;;;;;;;;;11.00;11.00;;;;;22.99;49.11;101070.75;4999636;28;45489;-64
2023/09/28 00:27:52;;;;;;;;;10.00;8.75;;;;;22.97;48.91;101075.34;5000045;28;45417;-63
2023/09/28 00:30:21;;;;;;;;;10.00;7.00;;;;;22.93;49.03;101081.84;5014095;28;45363;-64
2023/09/28 00:32:51;;;;;;;;;11.00;10.00;;;;;22.91;49.00;101086.44;5000039;28;45360;-64
2023/09/28 00:35:17;;;;;;;;;13.50;11.00;;;;;22.87;49.00;101075.03;4999748;28;45252;-64
2023/09/28 00:37:42;;;;;;;;;8.75;8.50;;;;;22.85;49.11;101076.09;4999742;28;47270;-63
2023/09/28 00:40:20;;;;;;;;;9.75;9.75;;;;;22.86;49.07;101088.53;5001477;28;45651;-63
2023/09/28 00:42:47;;;;;;;;;10.75;10.25;;;;;22.82;49.32;101093.22;5004933;28;45330;-64
2023/09/28 00:45:13;;;;;;;;;8.00;7.00;;;;;22.80;49.20;101105.81;4999641;28;45380;-63
2023/09/28 00:47:39;;;;;;;;;10.75;10.25;;;;;22.80;49.47;101105.81;4999445;28;45622;-64
2023/09/28 00:50:14;;;;;;;;;11.75;11.25;;;;;22.70;49.34;101105.53;4999960;28;45315;-64
2023/09/28 00:52:48;;;;;;;;;11.75;10.75;;;;;22.75;49.14;101117.78;4999718;28;45354;-64
2023/09/28 00:55:16;;;;;;;;;13.75;12.75;;;;;22.70;49.49;101113.56;5013446;28;45239;-63
2023/09/28 00:57:42;;;;;;;;;10.25;9.25;;;;;22.69;49.24;101119.00;5016076;28;45267;-64
2023/09/28 01:00:25;;;;;;;;;9.50;9.25;;;;;22.67;49.32;101119.09;4999499;28;45343;-64
2023/09/28 01:02:53;;;;;;;;;10.00;8.75;;;;;22.64;49.66;101119.28;5004632;28;45432;-64
2023/09/28 01:05:25;;;;;;;;;10.00;9.00;;;;;22.63;49.91;101130.94;4999371;28;45516;-64
2023/09/28 01:07:50;;;;;;;;;8.00;8.00;;;;;22.58;49.92;101116.97;5006180;28;46522;-63
2023/09/28 01:10:23;;;;;;;;;10.00;10.00;;;;;22.56;49.72;101105.47;5018854;28;45247;-64
2023/09/28 01:12:51;;;;;;;;;9.50;9.50;;;;;22.57;49.81;101109.88;5019250;28;45230;-64
2023/09/28 01:15:17;;;;;;;;;10.00;9.50;;;;;22.57;49.60;101104.53;5019935;28;45258;-64
2023/09/28 01:17:43;;;;;;;;;9.00;8.00;;;;;22.56;49.60;101101.00;5022698;28;46286;-63
2023/09/28 01:20:17;;;;;;;;;9.75;9.75;;;;;22.56;49.71;101098.31;5021770;28;45368;-64
2023/09/28 01:22:43;;;;;;;;;8.75;7.75;;;;;22.57;49.64;101088.47;5022745;28;45247;-64
2023/09/28 01:25:09;;;;;;;;;9.00;9.00;;;;;22.56;49.91;101076.03;5022172;28;45427;-63
2023/09/28 01:27:35;;;;;;;;;11.50;11.50;;;;;22.52;49.70;101069.97;5004509;28;47113;-63
2023/09/28 01:30:03;;;;;;;;;12.25;10.75;;;;;22.55;49.87;101082.31;5021967;28;45471;-63
2023/09/28 01:32:29;;;;;;;;;7.00;6.25;;;;;22.54;49.73;101093.97;5022614;28;45235;-64
2023/09/28 01:34:54;;;;;;;;;11.25;11.00;;;;;22.53;49.60;101103.00;5004277;28;45384;-63
2023/09/28 01:37:29;;;;;;;;;9.00;8.50;;;;;22.54;49.34;101108.25;5022239;28;49841;-64
2023/09/28 01:39:54;;;;;;;;;6.75;6.75;;;;;22.53;49.55;101103.84;5022176;28;45472;-64
2023/09/28 01:42:19;;;;;;;;;7.50;7.00;;;;;22.53;49.49;101109.19;5022178;28;46362;-63
2023/09/28 01:44:45;;;;;;;;;10.50;10.00;;;;;22.51;49.51;101104.88;5016610;28;52028;-63
2023/09/28 01:47:10;;;;;;;;;11.75;8.50;;;;;22.51;50.04;101110.25;5002381;28;45287;-63
2023/09/28 01:49:35;;;;;;;;;12.00;9.75;;;;;22.49;49.76;101115.69;5001881;28;52625;-64
2023/09/28 01:52:01;;;;;;;;;10.25;8.25;;;;;22.50;49.41;101114.75;5002395;28;45286;-63
2023/09/28 01:54:26;;;;;;;;;9.25;8.50;;;;;22.48;49.73;101113.97;5010337;28;45555;-64
2023/09/28 01:56:51;;;;;;;;;11.00;10.00;;;;;22.46;49.78;101118.53;5020396;28;55034;-63
2023/09/28 01:59:17;;;;;;;;;8.25;8.00;;;;;22.45;50.04;101126.66;5005247;28;55131;-63
2023/09/28 02:01:43;;;;;;;;;10.25;10.00;;;;;22.44;49.75;101141.00;5003264;28;45244;-63
2023/09/28 02:04:08;;;;;;;;;9.75;8.75;;;;;22.41;49.87;101136.69;5005563;28;45510;-63
2023/09/28 02:06:33;;;;;;;;;8.25;7.50;;;;;22.39;49.48;101134.09;5003281;28;46072;-63
2023/09/28 02:08:58;;;;;;;;;8.25;8.25;;;;;22.37;49.88;101127.97;5001880;28;46172;-64
2023/09/28 02:11:24;;;;;;;;;8.00;8.00;;;;;22.34;49.54;101128.13;5001848;28;46629;-63
2023/09/28 02:13:49;;;;;;;;;9.25;7.25;;;;;22.32;49.67;101132.69;5001770;28;45365;-63
2023/09/28 02:16:14;;;;;;;;;10.25;10.00;;;;;22.33;49.90;101139.78;5001621;28;47121;-64
2023/09/28 02:18:42;;;;;;;;;8.50;8.00;;;;;22.28;49.87;101131.16;5001923;28;45367;-64
2023/09/28 02:21:16;;;;;;;;;4.25;4.25;;;;;22.26;49.47;101127.69;5001613;28;45453;-63
2023/09/28 02:23:41;;;;;;;;;7.00;7.00;;;;;22.27;49.83;101128.56;5002415;28;45465;-63
2023/09/28 02:26:07;;;;;;;;;7.00;7.00;;;;;22.25;49.89;101120.63;5009426;28;45942;-63
2023/09/28 02:28:33;;;;;;;;;8.25;8.25;;;;;22.22;49.66;101116.28;5007346;28;45755;-64
2023/09/28 02:31:08;;;;;;;;;9.50;8.00;;;;;22.21;49.78;101114.59;5009660;28;45267;-64
2023/09/28 02:33:34;;;;;;;;;8.25;7.25;;;;;22.20;49.85;101128.03;5001608;28;45181;-64
2023/09/28 02:35:59;;;;;;;;;6.75;6.75;;;;;22.19;49.75;101127.19;4994481;28;45392;-64
2023/09/28 02:38:25;;;;;;;;;11.75;9.00;;;;;22.18;50.39;101130.81;5014737;28;45361;-64
2023/09/28 02:40:50;;;;;;;;;9.25;7.25;;;;;22.19;50.10;101137.88;5001534;28;45172;-64
2023/09/28 02:43:16;;;;;;;;;7.75;7.25;;;;;22.16;49.59;101124.69;5001360;28;45156;-64
2023/09/28 02:45:42;;;;;;;;;6.75;6.75;;;;;22.18;50.32;101124.59;5000833;28;45320;-64
2023/09/28 02:48:08;;;;;;;;;9.00;7.50;;;;;22.16;50.23;101130.06;5001416;28;45441;-64
2023/09/28 02:50:34;;;;;;;;;8.50;8.00;;;;;22.15;50.14;101122.09;5001433;28;45483;-64
2023/09/28 02:52:59;;;;;;;;;7.75;6.75;;;;;22.16;50.27;101110.44;5002881;28;45433;-64
2023/09/28 02:55:24;;;;;;;;;6.25;6.25;;;;;22.16;50.34;101110.44;5016523;28;46229;-64
2023/09/28 02:57:49;;;;;;;;;7.75;6.75;;;;;22.15;50.26;101106.91;5016797;28;45320;-64
2023/09/28 03:00:30;;;;;;;;;8.00;6.00;;;;;22.19;50.26;101126.34;5001495;28;45561;-64
2023/09/28 03:02:56;;;;;;;;;8.50;7.00;;;;;22.17;49.92;101122.88;5006236;28;45437;-64
2023/09/28 03:05:23;;;;;;;;;8.25;6.50;;;;;22.18;50.05;101127.28;5000865;28;46286;-64
2023/09/28 03:07:49;;;;;;;;;7.25;7.00;;;;;22.16;50.24;101122.03;5002049;28;45237;-64
2023/09/28 03:10:14;;;;;;;;;6.25;6.25;;;;;22.18;50.07;101132.63;5001115;28;45495;-64
2023/09/28 03:12:40;;;;;;;;;9.75;8.75;;;;;22.17;50.47;101139.78;5001216;28;45377;-64
2023/09/28 03:15:12;;;;;;;;;10.00;7.75;;;;;22.17;49.93;101133.56;5000491;28;48280;-64
2023/09/28 03:17:39;;;;;;;;;8.25;7.25;;;;;22.15;50.34;101138.13;5001159;28;45370;-64
2023/09/28 03:20:13;;;;;;;;;7.25;7.00;;;;;22.16;50.26;101126.50;5000344;28;45357;-64
2023/09/28 03:22:39;;;;;;;;;10.25;9.50;;;;;22.15;50.58;101136.34;4992126;28;45736;-64
2023/09/28 03:25:10;;;;;;;;;7.25;7.00;;;;;22.16;50.18;101147.91;5004878;28;45427;-64
2023/09/28 03:27:35;;;;;;;;;8.75;8.75;;;;;22.16;50.27;101150.56;5000795;28;45274;-64
2023/09/28 03:30:05;;;;;;;;;8.25;8.25;;;;;22.16;50.32;101137.19;5015568;28;45238;-64
2023/09/28 03:32:30;;;;;;;;;10.00;10.00;;;;;22.13;50.16;101145.41;5000300;28;45393;-64
2023/09/28 03:34:55;;;;;;;;;11.25;10.75;;;;;22.16;50.10;101159.50;4999933;28;63407;-64
2023/09/28 03:37:20;;;;;;;;;9.00;8.25;;;;;22.16;50.34;101158.59;4998627;28;50765;-64
2023/09/28 03:39:46;;;;;;;;;12.00;12.00;;;;;22.16;50.31;101153.25;4999639;28;47261;-64
2023/09/28 03:42:12;;;;;;;;;12.00;10.75;;;;;22.17;49.95;101155.84;5000618;28;45275;-64
2023/09/28 03:44:37;;;;;;;;;11.00;10.25;;;;;22.17;50.51;101158.50;4999130;28;47251;-64
2023/09/28 03:47:02;;;;;;;;;10.00;8.75;;;;;22.16;50.39;101153.25;5010177;28;45457;-64
2023/09/28 03:49:28;;;;;;;;;10.75;10.75;;;;;22.16;51.09;101161.28;5000618;28;45429;-64
2023/09/28 03:51:53;;;;;;;;;14.75;12.25;;;;;22.16;50.47;101167.53;5000192;28;53188;-64
2023/09/28 03:54:18;;;;;;;;;11.50;7.75;;;;;22.14;50.45;101164.06;5009027;28;56070;-64
2023/09/28 03:56:43;;;;;;;;;12.25;11.75;;;;;22.14;50.22;101168.53;5017862;28;45405;-64
2023/09/28 03:59:09;;;;;;;;;9.75;9.75;;;;;22.05;50.78;101157.41;5004844;28;52783;-64
2023/09/28 04:01:34;;;;;;;;;9.75;9.00;;;;;22.07;50.68;101160.88;5000794;28;45425;-63
2023/09/28 04:04:00;;;;;;;;;12.25;10.75;;;;;22.06;50.99;101156.47;5004654;28;47114;-64
2023/09/28 04:06:25;;;;;;;;;12.25;10.25;;;;;22.04;50.62;101163.69;5000838;28;56887;-64
2023/09/28 04:08:50;;;;;;;;;15.00;14.00;;;;;22.04;50.58;101154.81;5002107;28;45279;-64
2023/09/28 04:11:16;;;;;;;;;20.25;16.00;;;;;22.03;50.88;101161.13;5019642;28;47492;-64
2023/09/28 04:13:41;;;;;;;;;13.00;12.00;;;;;22.01;50.54;101158.53;5019623;28;46345;-63
2023/09/28 04:16:06;;;;;;;;;19.50;16.00;;;;;22.01;50.93;101161.22;5019680;28;45211;-63
2023/09/28 04:18:32;;;;;;;;;16.25;15.75;;;;;21.97;50.58;101156.97;5019931;28;45264;-64
2023/09/28 04:20:57;;;;;;;;;11.25;11.00;;;;;21.98;50.67;101161.38;5018698;28;47203;-64
2023/09/28 04:23:23;;;;;;;;;12.75;10.75;;;;;21.96;50.42;101167.75;5001776;28;46005;-64
2023/09/28 04:25:48;;;;;;;;;15.25;12.00;;;;;21.96;50.88;101173.97;5019812;28;45329;-64
2023/09/28 04:28:13;;;;;;;;;12.50;12.25;;;;;21.98;50.79;101179.25;5019712;28;45341;-64
2023/09/28 04:30:38;;;;;;;;;10.00;8.75;;;;;21.98;50.66;101187.28;5019923;28;45232;-64
2023/09/28 04:33:04;;;;;;;;;12.25;11.00;;;;;21.95;50.79;101180.28;5019563;28;45436;-64
2023/09/28 04:35:30;;;;;;;;;13.00;11.00;;;;;21.94;50.73;101186.56;5019588;28;45481;-64
2023/09/28 04:37:55;;;;;;;;;11.25;10.75;;;;;21.94;50.64;101183.91;5019721;28;45321;-63
2023/09/28 04:40:24;;;;;;;;;13.00;12.00;;;;;21.94;51.11;101189.25;5001857;28;45338;-64
2023/09/28 04:42:50;;;;;;;;;13.25;11.75;;;;;21.94;50.88;101189.25;5019300;28;45227;-64
2023/09/28 04:45:15;;;;;;;;;13.50;10.50;;;;;21.92;51.13;101181.31;5019605;28;45205;-64
2023/09/28 04:47:42;;;;;;;;;13.25;11.00;;;;;21.93;50.77;101176.81;5019660;28;46382;-64
2023/09/28 04:50:08;;;;;;;;;10.75;9.25;;;;;21.92;50.75;101177.75;5011385;28;45184;-64
2023/09/28 04:52:34;;;;;;;;;13.75;11.50;;;;;21.96;50.95;101189.16;5002906;28;45918;-64
2023/09/28 04:54:59;;;;;;;;;9.00;9.00;;;;;21.94;51.10;101181.22;5014264;28;45504;-63
2023/09/28 04:57:25;;;;;;;;;13.00;10.75;;;;;21.96;50.89;101189.16;5022408;28;45360;-63
2023/09/28 04:59:51;;;;;;;;;11.25;11.00;;;;;21.97;51.02;101189.06;5002594;28;45267;-62
2023/09/28 05:02:17;;;;;;;;;15.00;10.00;;;;;21.96;51.31;101184.69;5007671;28;56847;-63
2023/09/28 05:04:42;;;;;;;;;10.50;9.00;;;;;21.98;50.64;101189.94;4990987;28;45489;-63
2023/09/28 05:07:07;;;;;;;;;8.25;8.25;;;;;21.99;51.17;101189.00;5003708;28;45592;-63
2023/09/28 05:09:33;;;;;;;;;5.25;5.25;;;;;22.02;51.09;101203.03;5015223;28;45357;-63
2023/09/28 05:12:00;;;;;;;;;8.00;5.75;;;;;22.00;50.80;101188.03;5002730;28;45905;-63
2023/09/28 05:14:26;;;;;;;;;4.50;2.75;;;;;22.01;51.23;101196.00;5001959;28;45218;-63
2023/09/28 05:16:53;;;;;;;;;9.00;7.00;;;;;21.89;51.26;101172.59;5002810;28;45252;-63
2023/09/28 05:19:19;;;;;;;;;5.75;5.75;;;;;22.04;51.06;101198.47;5002890;28;45469;-63
2023/09/28 05:21:44;;;;;;;;;5.00;2.50;;;;;22.05;50.89;101200.22;5002550;28;46016;-63
2023/09/28 05:24:10;;;;;;;;;3.00;3.00;;;;;22.05;50.39;101202.91;5002898;28;45336;-63
2023/09/28 05:26:35;;;;;;;;;5.25;3.75;;;;;22.04;50.33;101208.34;5002813;28;45353;-63
2023/09/28 05:29:00;;;;;;;;;6.00;3.00;;;;;22.06;50.31;101220.69;5004748;28;45489;-63
2023/09/28 05:31:26;;;;;;;;;7.00;2.25;;;;;22.06;50.36;101219.81;5007179;28;45433;-63
2023/09/28 05:33:52;;;;;;;;;3.33;3.33;;;;;22.07;50.20;101224.22;5002735;28;45390;-63
2023/09/28 05:36:17;;;;;;;;;2.00;2.00;;;;;22.07;49.79;101216.19;5002719;28;45384;-63
2023/09/28 05:38:42;;;;;;;;;0.00;0.00;;;;;22.07;49.79;101221.53;5002340;28;45684;-63
2023/09/28 05:41:07;;;;;;;;;4.33;2.67;;;;;22.06;49.92;101223.34;5002310;28;45348;-63
2023/09/28 05:43:33;;;;;;;;;3.00;3.00;;;;;22.07;50.17;101225.09;4989806;28;45334;-63
2023/09/28 05:45:58;;;;;;;;;5.50;4.00;;;;;22.07;49.88;101227.75;5015832;28;45341;-64
2023/09/28 05:48:24;;;;;;;;;2.00;2.00;;;;;22.10;49.63;101239.22;5002610;28;45444;-65
2023/09/28 05:50:49;;;;;;;;;4.50;3.00;;;;;22.09;49.78;101238.38;5002071;28;45518;-65
2023/09/28 05:53:15;;;;;;;;;4.67;3.00;;;;;22.09;49.93;101249.09;5005824;28;45398;-65
2023/09/28 05:55:40;;;;;;;;;2.33;1.00;;;;;22.10;49.83;101252.59;5016022;28;45957;-66
2023/09/28 05:58:05;;;;;;;;;3.00;3.00;;;;;22.10;49.83;101253.50;5016894;28;45494;-65
2023/09/28 06:00:31;;;;;;;;;5.33;5.00;;;;;22.12;49.88;101259.59;5014886;28;45268;-66
2023/09/28 06:02:57;;;;;;;;;4.00;3.00;;;;;22.11;49.39;101252.53;5022144;28;45349;-65
2023/09/28 06:05:22;;;;;;;;;5.33;3.00;;;;;22.08;49.50;101234.81;5014681;28;45479;-66
2023/09/28 06:07:47;;;;;;;;;4.33;3.67;;;;;22.13;49.15;101241.75;5015087;28;45424;-65
2023/09/28 06:10:14;;;;;;;;;5.00;2.00;;;;;22.12;49.43;101248.06;5001891;28;45267;-64
2023/09/28 06:12:39;;;;;;;;;15.00;11.00;;;;;22.06;49.51;101236.75;5001822;28;45390;-64
2023/09/28 06:15:07;;;;;;;;;7.25;4.25;;;;;22.09;49.06;101241.06;4984178;28;45267;-66
2023/09/28 06:17:33;;;;;;;;;25.75;19.50;;;;;22.14;49.15;101251.47;5001719;28;45469;-65
2023/09/28 06:19:58;;;;;;;;;4.25;4.25;;;;;22.13;49.15;101247.09;5001723;28;45669;-66
2023/09/28 06:22:24;;;;;;;;;7.00;4.00;;;;;22.13;49.56;101250.63;5002005;28;45246;-67
2023/09/28 06:24:49;;;;;;;;;4.67;3.00;;;;;22.12;48.97;101259.59;5001240;28;45231;-65
2023/09/28 06:27:14;;;;;;;;;8.25;4.25;;;;;22.11;49.39;101257.03;5001297;28;45593;-66
2023/09/28 06:29:40;;;;;;;;;6.50;5.50;;;;;22.10;48.79;101256.16;5000961;28;55672;-68
2023/09/28 06:32:05;;;;;;;;;7.75;4.50;;;;;22.08;48.99;101266.94;5001622;28;48200;-64
2023/09/28 06:34:30;;;;;;;;;3.00;2.50;;;;;22.09;49.07;101265.13;5001765;28;46283;-66
2023/09/28 06:36:56;;;;;;;;;6.50;5.00;;;;;22.06;48.95;101266.16;5001149;28;55678;-64
2023/09/28 06:39:21;;;;;;;;;4.00;4.00;;;;;22.04;48.59;101270.72;5001605;28;46937;-66
2023/09/28 06:41:46;;;;;;;;;3.75;2.50;;;;;22.02;48.79;101272.63;5001069;28;46969;-65
2023/09/28 06:44:12;;;;;;;;;5.00;2.00;;;;;22.02;49.05;101279.78;5001440;28;45366;-67
2023/09/28 06:46:37;;;;;;;;;1.00;1.00;;;;;22.00;48.46;101273.66;5000931;28;45326;-65
2023/09/28 06:49:05;;;;;;;;;2.67;2.33;;;;;21.96;48.40;101275.66;5001689;28;45409;-65
2023/09/28 06:51:31;;;;;;;;;4.50;3.00;;;;;21.92;48.12;101274.06;5001187;28;45440;-65
2023/09/28 06:53:57;;;;;;;;;2.33;1.67;;;;;21.89;48.69;101268.88;5010906;28;45298;-65
2023/09/28 06:56:22;;;;;;;;;5.00;3.00;;;;;21.87;48.60;101278.78;5020800;28;45175;-63
2023/09/28 06:58:47;;;;;;;;;4.67;1.33;;;;;21.82;47.98;101279.03;5020906;28;54735;-63
2023/09/28 07:01:12;;;;;;;;;2.33;2.00;;;;;21.80;48.20;101285.41;5020991;28;48203;-63
2023/09/28 07:03:38;;;;;;;;;1.00;1.00;;;;;21.79;48.39;101281.88;5021482;28;45411;-63
2023/09/28 07:06:04;;;;;;;;;5.00;2.00;;;;;21.77;47.94;101277.56;5008615;28;51099;-65
2023/09/28 07:08:29;;;;;;;;;4.00;2.00;;;;;21.73;48.02;101280.38;5021290;28;45282;-65
2023/09/28 07:10:54;;;;;;;;;4.33;2.33;;;;;21.73;47.87;101280.38;5020601;28;45303;-63
2023/09/28 07:13:20;;;;;;;;;4.00;1.67;;;;;21.72;47.94;101278.69;5019763;28;47759;-64
2023/09/28 07:15:47;;;;;;;;;5.00;2.33;;;;;21.71;48.04;101276.94;5020534;28;45267;-64
2023/09/28 07:18:12;;;;;;;;;3.33;2.33;;;;;21.69;48.22;101280.66;5021154;28;45183;-65
2023/09/28 07:20:37;;;;;;;;;3.00;2.00;;;;;21.68;47.75;101285.13;5020280;28;57777;-65
2023/09/28 07:23:03;;;;;;;;;3.00;2.00;;;;;21.68;48.17;101286.94;5021068;28;45251;-65
2023/09/28 07:25:29;;;;;;;;;2.33;1.33;;;;;21.64;47.96;101280.88;5019175;28;45588;-64
2023/09/28 07:27:55;;;;;;;;;4.00;2.00;;;;;21.65;47.78;101295.97;5020479;28;45699;-64
2023/09/28 07:30:22;;;;;;;;;4.33;2.00;;;;;21.65;47.83;101306.69;5002588;28;45467;-65
2023/09/28 07:32:49;;;;;;;;;7.00;2.33;;;;;21.61;47.99;101307.78;5019722;28;45335;-64
2023/09/28 07:35:16;;;;;;;;;4.67;2.67;;;;;21.63;47.88;101324.59;5020466;28;45531;-64
2023/09/28 07:37:42;;;;;;;;;4.00;2.33;;;;;21.62;47.70;101338.91;5020715;28;45317;-64
2023/09/28 07:40:12;;;;;;;;;2.00;2.00;;;;;21.62;48.05;101346.94;5020368;28;45317;-64
2023/09/28 07:42:41;;;;;;;;;5.00;2.67;;;;;21.62;47.72;101346.09;5020433;28;45376;-65
2023/09/28 07:45:07;;;;;;;;;5.00;2.33;;;;;21.60;47.83;101343.50;5020263;28;45234;-65
2023/09/28 07:47:33;;;;;;;;;3.00;2.00;;;;;21.56;47.55;101337.44;5020351;28;47142;-65
2023/09/28 07:49:59;;;;;;;;;4.33;2.00;;;;;21.61;48.08;101347.03;5020361;28;45404;-64
2023/09/28 07:52:24;;;;;;;;;4.67;2.00;;;;;21.62;47.74;101351.44;5020560;28;45513;-64
2023/09/28 07:54:49;;;;;;;;;4.75;2.25;;;;;21.62;47.76;101343.41;5019852;28;48946;-64
2023/09/28 07:57:15;;;;;;;;;1.67;1.67;;;;;21.63;47.54;101347.81;5020313;28;46218;-64
2023/09/28 07:59:40;;;;;;;;;6.00;2.67;;;;;21.61;47.84;101341.66;5020040;28;45357;-65
2023/09/28 08:02:09;;;;;;;;;2.67;2.67;;;;;21.62;47.88;101346.94;5020595;28;45350;-64
2023/09/28 08:04:36;;;;;;;;;7.00;1.67;;;;;21.63;47.40;101348.66;5019198;28;45238;-65
2023/09/28 08:07:01;;;;;;;;;7.67;3.67;;;;;21.63;47.89;101353.16;4991365;28;46153;-64
2023/09/28 08:09:27;;;;;;;;;7.00;4.00;;;;;21.64;47.76;101347.72;5020088;28;45344;-65
2023/09/28 08:11:52;;;;;;;;;3.50;2.50;;;;;21.65;48.08;101349.47;5020253;28;45201;-64
2023/09/28 08:14:18;;;;;;;;;4.67;3.00;;;;;21.65;47.92;101348.63;5019784;28;45296;-65
2023/09/28 08:16:46;;;;;;;;;8.00;5.00;;;;;21.66;47.72;101359.22;5019924;28;45900;-64
2023/09/28 08:19:12;;;;;;;;;5.33;4.00;;;;;21.66;47.51;101353.88;5019999;28;45326;-65
2023/09/28 08:21:38;;;;;;;;;7.75;3.00;;;;;21.66;47.98;101353.00;5020209;28;45361;-65
2023/09/28 08:24:05;;;;;;;;;7.33;2.33;;;;;21.69;47.68;101360.88;5019618;28;45453;-65
2023/09/28 08:26:31;;;;;;;;;2.67;2.00;;;;;21.72;47.81;101358.03;5019634;28;46171;-65
2023/09/28 08:28:58;;;;;;;;;2.00;1.33;;;;;21.73;48.02;101355.28;5019614;28;45246;-65
2023/09/28 08:31:23;;;;;;;;;2.33;2.00;;;;;21.77;47.92;101355.97;5020106;28;45240;-65
2023/09/28 08:33:49;;;;;;;;;5.00;2.00;;;;;21.81;47.51;101367.41;5019715;28;45247;-64
2023/09/28 08:36:15;;;;;;;;;5.33;2.67;;;;;21.83;47.50;101370.88;5019875;28;46078;-65
2023/09/28 08:38:40;;;;;;;;;6.50;3.00;;;;;21.88;47.61;101388.38;5019603;28;45327;-65
2023/09/28 08:41:07;;;;;;;;;3.00;3.00;;;;;21.90;47.47;101386.50;5019647;28;50145;-65
2023/09/28 08:43:43;;;;;;;;;0.67;0.67;;;;;21.93;47.48;101388.16;5019649;28;45413;-64
2023/09/28 08:46:12;;;;;;;;;3.33;2.00;;;;;21.98;47.52;101393.28;5019558;28;46011;-65
2023/09/28 08:48:43;;;;;;;;;2.00;2.00;;;;;22.01;47.19;101391.31;5019653;28;45312;-65
2023/09/28 08:51:10;;;;;;;;;5.00;4.00;;;;;22.02;47.19;101387.66;5019755;28;45380;-65
2023/09/28 08:53:40;;;;;;;;;2.33;2.33;;;;;22.07;47.47;101391.00;5019350;28;45536;-65
2023/09/28 08:56:06;;;;;;;;;4.50;3.00;;;;;22.11;47.02;101390.81;5019309;28;45429;-64
2023/09/28 08:58:36;;;;;;;;;4.67;2.00;;;;;22.16;47.21;101397.69;5019183;28;45263;-65
2023/09/28 09:01:03;;;;;;;;;3.00;2.67;;;;;22.22;46.94;101399.16;5018534;28;45253;-65
2023/09/28 09:03:30;;;;;;;;;5.33;2.67;;;;;22.29;47.16;101387.19;5006218;28;45485;-65
2023/09/28 09:05:56;;;;;;;;;6.00;2.33;;;;;22.33;47.37;101375.34;5007338;28;46641;-65
2023/09/28 09:08:23;;;;;;;;;1.00;1.00;;;;;22.45;47.45;101362.28;5006403;28;45400;-65
2023/09/28 09:10:51;;;;;;;;;6.67;2.33;;;;;22.54;47.20;101357.28;5019521;28;45329;-65
2023/09/28 09:13:19;;;;;;;;;3.67;3.67;;;;;22.66;47.60;101360.25;5019356;28;45239;-65
2023/09/28 09:15:45;;;;;;;;;2.00;1.00;;;;;22.75;47.50;101353.50;5018938;28;46307;-65
2023/09/28 09:18:20;;;;;;;;;5.75;2.75;;;;;22.86;47.32;101359.97;5019337;28;45316;-65
2023/09/28 09:20:46;;;;;;;;;2.33;1.33;;;;;22.97;47.24;101353.19;5001508;28;45377;-65
2023/09/28 09:23:13;;;;;;;;;2.67;2.33;;;;;23.06;47.53;101352.63;5019264;28;45262;-65
2023/09/28 09:25:43;;;;;;;;;5.00;3.00;;;;;23.18;47.47;101337.69;5018997;28;45476;-65
2023/09/28 09:28:08;;;;;;;;;6.67;3.00;;;;;23.26;47.57;101343.47;5019016;28;45247;-64
2023/09/28 09:30:37;;;;;;;;;2.50;2.00;;;;;23.39;47.28;101350.81;5016529;28;45417;-65
2023/09/28 09:33:07;;;;;;;;;2.67;2.00;;;;;23.45;47.11;101353.97;4998369;28;45464;-65
2023/09/28 09:35:33;;;;;;;;;4.75;3.25;;;;;23.49;46.86;101350.16;4999262;28;45325;-65
2023/09/28 09:37:58;;;;;;;;;9.75;6.00;;;;;23.60;47.08;101362.09;5002603;28;45266;-65
2023/09/28 09:40:25;;;;;;;;;2.00;2.00;;;;;23.66;46.60;101365.25;5002437;28;45239;-65
2023/09/28 09:42:51;;;;;;;;;3.67;2.00;;;;;23.70;46.64;101365.94;5002398;28;45429;-65
2023/09/28 09:45:19;;;;;;;;;2.33;2.33;;;;;23.71;46.49;101373.03;5002373;28;45322;-65
2023/09/28 09:47:47;;;;;;;;;2.00;1.33;;;;;23.77;46.37;101374.47;5002689;28;45313;-65
2023/09/28 09:50:17;;;;;;;;;2.00;2.00;;;;;23.79;46.36;101375.25;5002505;28;45496;-65
2023/09/28 09:52:45;;;;;;;;;2.00;2.00;;;;;23.82;45.90;101367.91;5002446;28;45540;-65
2023/09/28 09:55:12;;;;;;;;;3.50;2.75;;;;;23.85;45.92;101364.16;5021376;28;46144;-65
2023/09/28 09:57:41;;;;;;;;;2.00;1.00;;;;;23.90;45.98;101375.47;5022040;28;45363;-65
2023/09/28 10:00:08;;;;;;;;;3.33;2.00;;;;;23.95;45.77;101373.41;5022186;28;45480;-65
2023/09/28 10:02:39;;;;;;;;;2.00;2.00;;;;;23.97;45.89;101382.22;5004330;28;45553;-65
2023/09/28 10:05:12;;;;;;;;;4.67;2.00;;;;;24.00;45.87;101392.78;5016447;28;45265;-65
2023/09/28 10:07:38;;;;;;;;;3.25;1.00;;;;;24.01;45.68;101386.47;5016227;28;45315;-65
2023/09/28 10:10:04;;;;;;;;;2.00;2.00;;;;;24.08;45.35;101383.41;5004223;28;45261;-65
2023/09/28 10:12:30;;;;;;;;;5.25;2.25;;;;;24.14;45.69;101380.34;5001240;28;45533;-65
2023/09/28 10:14:58;;;;;;;;;4.00;1.67;;;;;24.20;45.19;101373.72;5021697;28;47219;-64
2023/09/28 10:17:31;;;;;;;;;5.00;2.50;;;;;24.25;45.47;101375.16;5021557;28;45353;-65
2023/09/28 10:19:58;;;;;;;;;5.00;2.67;;;;;24.35;45.24;101364.69;5022117;28;45381;-65
2023/09/28 10:22:23;;;;;;;;;7.00;3.75;;;;;24.41;45.25;101363.47;5021701;28;45277;-65
2023/09/28 10:24:49;;;;;;;;;3.67;2.33;;;;;24.49;45.35;101364.69;5021715;28;45318;-65
2023/09/28 10:27:14;;;;;;;;;5.00;1.25;;;;;24.41;45.32;101326.72;5021634;28;45334;-65
2023/09/28 10:29:40;;;;;;;;;2.00;1.00;;;;;24.66;44.79;101354.72;5021922;28;45274;-65
2023/09/28 10:32:29;;;;;;;;;4.00;3.00;;;;;24.75;44.77;101348.75;5020316;28;45608;-65
2023/09/28 10:35:27;;;;;;;;;5.00;3.33;;;;;24.85;45.12;101351.72;5021496;28;45494;-65
2023/09/28 10:38:18;;;;;;;;;1.67;1.00;;;;;24.96;44.68;101353.72;5021554;28;45337;-65
2023/09/28 10:40:58;;;;;;;;;3.33;2.00;;;;;25.07;44.22;101351.19;5021561;28;45290;-65
2023/09/28 10:43:31;;;;;;;;;4.67;2.67;;;;;25.16;44.74;101347.03;5021222;28;45328;-65
2023/09/28 10:45:57;;;;;;;;;4.00;2.00;;;;;25.26;44.85;101340.06;5021433;28;45435;-65
2023/09/28 10:48:23;;;;;;;;;3.00;3.00;;;;;25.39;44.76;101339.28;5021247;28;45395;-65
2023/09/28 10:50:50;;;;;;;;;2.00;1.75;;;;;25.49;44.21;101337.69;5021454;28;45334;-65
2023/09/28 10:53:17;;;;;;;;;3.00;2.50;;;;;25.57;44.11;101335.34;5021229;28;45389;-65
2023/09/28 10:55:42;;;;;;;;;4.00;3.00;;;;;25.62;44.41;101330.50;5013630;28;47178;-65
2023/09/28 10:58:07;;;;;;;;;6.50;2.00;;;;;25.71;43.68;101329.00;5015691;28;45330;-65
2023/09/28 11:00:34;;;;;;;;;3.25;2.00;;;;;25.71;44.17;101314.66;5021417;28;45239;-65
2023/09/28 11:02:59;;;;;;;;;3.00;2.00;;;;;25.81;43.40;101323.84;5021235;28;45326;-65
2023/09/28 11:05:25;;;;;;;;;2.00;1.67;;;;;25.81;44.00;101326.53;5013369;28;46491;-65
2023/09/28 11:07:51;;;;;;;;;2.67;2.33;;;;;25.84;43.31;101329.00;5016834;28;45303;-65
2023/09/28 11:10:16;;;;;;;;;4.00;2.00;;;;;25.89;43.94;101331.38;5003437;28;45318;-65
2023/09/28 11:12:42;;;;;;;;;5.50;3.75;;;;;25.94;43.92;101326.53;5020718;28;45496;-65
2023/09/28 11:15:09;;;;;;;;;2.25;1.25;;;;;26.07;43.32;101322.03;5020966;28;45907;-65
2023/09/28 11:17:35;;;;;;;;;5.00;4.50;;;;;26.27;43.36;101326.00;5020811;28;45235;-65
2023/09/28 11:20:01;;;;;;;;;4.25;2.75;;;;;26.48;44.04;101322.75;5003208;28;45367;-65